createdAt,value
2022-08-17T00:00:34.298Z,76.86
2022-08-17T00:03:10.358Z,77.58
2022-08-17T00:05:42.714Z,77.49
2022-08-17T00:08:10.777Z,78.12
2022-08-17T00:10:40.501Z,77.98
2022-08-17T00:13:11.043Z,77.88
2022-08-17T00:15:38.950Z,77.79
2022-08-17T00:19:01.748Z,77.86
2022-08-17T00:20:55.809Z,77.80
2022-08-17T00:23:24.247Z,77.28
2022-08-17T00:25:54.209Z,76.27
2022-08-17T00:28:22.412Z,76.21
2022-08-17T00:30:53.558Z,76.25
2022-08-17T00:33:25.934Z,76.56
2022-08-17T00:35:55.140Z,77.25
2022-08-17T00:38:24.739Z,77.05
2022-08-17T00:40:59.030Z,77.69
2022-08-17T00:43:32.151Z,77.46
2022-08-17T00:46:02.780Z,77.58
2022-08-17T00:48:31.692Z,77.67
2022-08-17T00:51:07.636Z,77.96
2022-08-17T00:53:40.055Z,78.03
2022-08-17T00:56:13.093Z,77.72
2022-08-17T00:58:42.213Z,76.74
2022-08-17T01:01:12.357Z,76.37
2022-08-17T01:03:49.626Z,76.51
2022-08-17T01:06:17.474Z,76.81
2022-08-17T01:08:46.121Z,77.50
2022-08-17T01:11:15.386Z,77.43
2022-08-17T01:13:45.710Z,77.66
2022-08-17T01:16:17.596Z,77.55
2022-08-17T01:18:48.772Z,77.65
2022-08-17T01:21:22.134Z,77.75
2022-08-17T01:23:51.381Z,77.80
2022-08-17T01:26:19.576Z,77.96
2022-08-17T01:28:54.204Z,78.21
2022-08-17T01:31:24.879Z,76.69
2022-08-17T01:33:52.914Z,76.76
2022-08-17T01:36:20.622Z,77.04
2022-08-17T01:38:48.799Z,77.08
2022-08-17T01:41:18.028Z,77.38
2022-08-17T01:43:50.049Z,78.03
2022-08-17T01:46:23.439Z,78.23
2022-08-17T01:48:51.875Z,78.46
2022-08-17T01:51:20.078Z,78.44
2022-08-17T01:53:51.379Z,78.50
2022-08-17T01:56:23.892Z,78.55
2022-08-17T01:58:52.639Z,78.79
2022-08-17T02:01:22.769Z,78.64
2022-08-17T02:03:56.156Z,79.05
2022-08-17T02:06:29.928Z,79.20
2022-08-17T02:09:02.978Z,79.07
2022-08-17T02:11:35.084Z,78.62
2022-08-17T02:14:04.120Z,78.01
2022-08-17T02:16:36.984Z,78.03
2022-08-17T02:19:07.512Z,77.87
2022-08-17T02:21:35.255Z,77.84
2022-08-17T02:24:04.695Z,78.22
2022-08-17T02:26:33.774Z,78.25
2022-08-17T02:29:01.984Z,77.94
2022-08-17T02:31:30.047Z,77.98
2022-08-17T02:34:03.473Z,78.25
2022-08-17T02:36:33.011Z,78.24
2022-08-17T02:39:01.703Z,78.44
2022-08-17T02:41:29.470Z,78.55
2022-08-17T02:43:59.301Z,77.82
2022-08-17T02:46:28.209Z,77.25
2022-08-17T02:48:56.253Z,77.83
2022-08-17T02:51:23.938Z,77.91
2022-08-17T02:53:52.218Z,78.22
2022-08-17T02:56:20.731Z,78.74
2022-08-17T02:58:48.455Z,79.50
2022-08-17T03:01:18.340Z,79.89
2022-08-17T03:03:46.197Z,79.85
2022-08-17T03:06:14.179Z,80.07
2022-08-17T03:08:41.824Z,80.06
2022-08-17T03:11:10.776Z,80.11
2022-08-17T03:13:38.434Z,80.54
2022-08-17T03:16:07.286Z,80.38
2022-08-17T03:18:36.740Z,79.82
2022-08-17T03:21:08.778Z,78.23
2022-08-17T03:23:40.971Z,78.17
2022-08-17T03:26:12.304Z,78.93
2022-08-17T03:28:43.429Z,79.84
2022-08-17T03:31:11.878Z,80.14
2022-08-17T03:33:41.231Z,80.80
2022-08-17T03:36:10.111Z,80.81
2022-08-17T03:38:39.291Z,81.25
2022-08-17T03:41:08.210Z,81.54
2022-08-17T03:43:35.864Z,81.30
2022-08-17T03:46:27.823Z,81.74
2022-08-17T03:49:22.697Z,82.16
2022-08-17T03:52:08.753Z,82.25
2022-08-17T03:54:54.320Z,82.64
2022-08-17T03:57:22.811Z,81.94
2022-08-17T03:59:51.169Z,82.19
2022-08-17T04:02:22.436Z,82.02
2022-08-17T04:04:52.714Z,82.01
2022-08-17T04:07:21.573Z,81.86
2022-08-17T04:09:50.254Z,81.55
2022-08-17T04:12:20.514Z,81.66
2022-08-17T04:14:53.245Z,81.38
2022-08-17T04:17:24.141Z,81.25
2022-08-17T04:19:54.046Z,80.95
2022-08-17T04:22:31.024Z,80.86
2022-08-17T04:25:04.673Z,80.94
2022-08-17T04:27:32.352Z,79.26
2022-08-17T04:30:00.380Z,78.53
2022-08-17T04:33:09.852Z,78.50
2022-08-17T04:35:21.407Z,78.17
2022-08-17T04:37:49.118Z,78.25
2022-08-17T04:40:35.285Z,78.63
2022-08-17T04:43:05.077Z,80.11
2022-08-17T04:45:33.533Z,80.27
2022-08-17T04:48:01.358Z,80.04
2022-08-17T04:50:30.454Z,80.34
2022-08-17T04:52:58.448Z,80.66
2022-08-17T04:55:26.960Z,80.10
2022-08-17T04:57:54.783Z,80.46
2022-08-17T05:00:25.629Z,80.76
2022-08-17T05:02:55.614Z,80.68
2022-08-17T05:05:26.196Z,80.20
2022-08-17T05:07:59.211Z,80.45
2022-08-17T05:10:29.627Z,80.26
2022-08-17T05:13:01.720Z,80.15
2022-08-17T05:15:33.187Z,79.82
2022-08-17T05:18:04.330Z,79.96
2022-08-17T05:20:32.576Z,80.12
2022-08-17T05:23:04.863Z,80.05
2022-08-17T05:25:36.289Z,79.75
2022-08-17T05:28:05.858Z,79.02
2022-08-17T05:30:35.721Z,78.93
2022-08-17T05:33:06.678Z,78.44
2022-08-17T05:35:37.399Z,78.53
2022-08-17T05:38:07.995Z,78.68
2022-08-17T05:40:36.886Z,79.25
2022-08-17T05:43:07.896Z,79.16
2022-08-17T05:45:55.430Z,78.25
2022-08-17T05:48:39.650Z,77.27
2022-08-17T05:51:40.113Z,76.60
2022-08-17T05:54:29.961Z,76.24
2022-08-17T05:57:20.966Z,75.51
2022-08-17T05:59:59.122Z,75.45
2022-08-17T06:02:47.511Z,75.38
2022-08-17T06:05:32.451Z,74.03
2022-08-17T06:08:10.244Z,72.39
2022-08-17T06:10:46.463Z,70.22
2022-08-17T06:13:24.290Z,70.74
2022-08-17T06:15:59.948Z,71.01
2022-08-17T06:18:32.558Z,70.26
2022-08-17T06:21:04.370Z,68.02
2022-08-17T06:23:36.190Z,68.23
2022-08-17T06:26:13.268Z,67.96
2022-08-17T06:28:48.742Z,66.99
2022-08-17T06:31:27.414Z,66.85
2022-08-17T06:33:56.823Z,67.44
2022-08-17T06:36:41.236Z,66.79
2022-08-17T06:39:22.761Z,66.08
2022-08-17T06:42:01.404Z,65.54
2022-08-17T06:44:42.335Z,64.21
2022-08-17T06:47:28.026Z,63.30
2022-08-17T06:50:18.236Z,62.85
2022-08-17T06:52:54.049Z,62.94
2022-08-17T06:55:33.184Z,63.08
2022-08-17T06:58:16.272Z,62.61
2022-08-17T07:00:47.491Z,64.04
2022-08-17T07:03:25.018Z,64.53
2022-08-17T07:05:55.721Z,64.77
2022-08-17T07:08:35.124Z,64.63
2022-08-17T07:11:14.465Z,62.72
2022-08-17T07:13:51.788Z,61.69
2022-08-17T07:16:31.699Z,61.99
2022-08-17T07:19:00.129Z,62.24
2022-08-17T07:21:40.770Z,61.88
2022-08-17T07:24:26.323Z,61.61
2022-08-17T07:27:10.861Z,63.18
2022-08-17T07:29:44.716Z,62.53
2022-08-17T07:32:18.321Z,62.71
2022-08-17T07:35:12.344Z,62.12
2022-08-17T07:37:46.080Z,61.46
2022-08-17T07:40:22.094Z,59.86
2022-08-17T07:43:21.810Z,60.34
2022-08-17T07:46:37.154Z,60.15
2022-08-17T07:49:24.543Z,58.96
2022-08-17T07:52:47.492Z,58.74
2022-08-17T07:54:49.702Z,57.85
2022-08-17T07:57:41.223Z,58.36
2022-08-17T08:00:23.913Z,58.37
2022-08-17T08:03:16.605Z,58.56
2022-08-17T08:05:57.358Z,59.46
2022-08-17T08:08:32.336Z,58.34
2022-08-17T08:11:05.264Z,58.47
2022-08-17T08:13:34.719Z,57.46
2022-08-17T08:16:25.463Z,57.77
2022-08-17T08:18:58.024Z,56.74
2022-08-17T08:21:41.683Z,56.05
2022-08-17T08:24:30.764Z,54.07
2022-08-17T08:27:09.152Z,55.15
2022-08-17T08:29:48.876Z,54.70
2022-08-17T08:32:22.535Z,54.00
2022-08-17T08:35:03.725Z,52.65
2022-08-17T08:37:43.805Z,52.55
2022-08-17T08:40:31.638Z,52.13
2022-08-17T08:43:08.696Z,53.23
2022-08-17T08:45:43.686Z,51.92
2022-08-17T08:48:56.563Z,52.09
2022-08-17T08:51:27.785Z,52.13
2022-08-17T08:54:03.774Z,51.59
2022-08-17T08:56:38.119Z,51.45
2022-08-17T08:59:21.466Z,50.85
2022-08-17T09:02:01.288Z,50.15
2022-08-17T09:05:13.467Z,50.86
2022-08-17T09:07:56.318Z,50.22
2022-08-17T09:10:30.669Z,50.60
2022-08-17T09:13:10.147Z,48.15
2022-08-17T09:15:43.404Z,48.12
2022-08-17T09:19:02.720Z,47.92
2022-08-17T09:21:11.668Z,47.51
2022-08-17T09:23:46.612Z,47.59
2022-08-17T09:26:22.752Z,46.81
2022-08-17T09:28:52.750Z,45.16
2022-08-17T09:31:26.798Z,46.37
2022-08-17T09:34:01.182Z,46.71
2022-08-17T09:36:33.822Z,45.81
2022-08-17T09:39:07.176Z,45.06
2022-08-17T09:41:39.916Z,45.03
2022-08-17T09:44:24.767Z,43.75
2022-08-17T09:46:56.267Z,44.51
2022-08-17T09:49:31.390Z,42.42
2022-08-17T09:52:04.656Z,42.87
2022-08-17T09:54:39.962Z,44.06
2022-08-17T09:57:31.501Z,44.02
2022-08-17T10:00:16.049Z,44.23
2022-08-17T10:03:16.186Z,43.64
2022-08-17T10:05:51.298Z,43.91
2022-08-17T10:08:33.829Z,43.42
2022-08-17T10:11:15.402Z,43.59
2022-08-17T10:13:52.904Z,43.85
2022-08-17T10:16:27.058Z,44.10
2022-08-17T10:19:03.738Z,44.23
2022-08-17T10:22:00.976Z,43.60
2022-08-17T10:25:22.149Z,44.88
2022-08-17T10:27:57.866Z,43.08
2022-08-17T10:30:32.810Z,43.28
2022-08-17T10:33:03.792Z,43.11
2022-08-17T10:35:40.632Z,42.82
2022-08-17T10:38:34.431Z,42.21
2022-08-17T10:41:13.066Z,43.08
2022-08-17T10:44:37.585Z,43.63
2022-08-17T10:46:54.531Z,43.60
2022-08-17T10:49:29.246Z,42.23
2022-08-17T10:52:00.416Z,43.00
2022-08-17T10:54:37.592Z,42.25
2022-08-17T10:57:40.347Z,42.24
2022-08-17T11:00:15.100Z,43.17
2022-08-17T11:02:52.149Z,42.94
2022-08-17T11:05:43.962Z,45.33
2022-08-17T11:08:45.070Z,43.93
2022-08-17T11:11:35.799Z,42.99
2022-08-17T11:14:23.689Z,42.18
2022-08-17T11:17:11.575Z,42.40
2022-08-17T11:20:15.166Z,42.80
2022-08-17T11:23:19.015Z,41.74
2022-08-17T11:25:52.111Z,42.75
2022-08-17T11:28:23.532Z,44.79
2022-08-17T11:30:55.343Z,45.18
2022-08-17T11:33:53.656Z,45.74
2022-08-17T11:36:37.506Z,47.36
2022-08-17T11:39:19.660Z,46.89
2022-08-17T11:41:55.121Z,46.92
2022-08-17T11:44:37.592Z,47.79
2022-08-17T11:47:33.858Z,47.60
2022-08-17T11:50:36.581Z,48.39
2022-08-17T11:53:04.474Z,49.16
2022-08-17T11:56:04.507Z,49.65
2022-08-17T11:58:41.298Z,49.70
2022-08-17T12:01:13.601Z,49.58
2022-08-17T12:03:55.595Z,49.31
2022-08-17T12:06:46.963Z,50.44
2022-08-17T12:09:19.982Z,49.46
2022-08-17T12:11:55.508Z,49.81
2022-08-17T12:15:08.906Z,49.86
2022-08-17T12:17:39.203Z,49.56
2022-08-17T12:20:14.729Z,50.21
2022-08-17T12:22:55.090Z,49.85
2022-08-17T12:25:30.324Z,49.75
2022-08-17T12:28:05.308Z,49.82
2022-08-17T12:30:36.598Z,50.79
2022-08-17T12:33:11.300Z,50.34
2022-08-17T12:35:39.794Z,50.48
2022-08-17T12:38:26.932Z,51.44
2022-08-17T12:40:59.794Z,50.48
2022-08-17T12:43:32.802Z,50.09
2022-08-17T12:46:10.697Z,49.95
2022-08-17T12:48:59.388Z,48.84
2022-08-17T12:51:29.463Z,49.35
2022-08-17T12:53:58.452Z,48.64
2022-08-17T12:56:26.690Z,48.38
2022-08-17T12:58:56.584Z,48.41
2022-08-17T13:01:25.180Z,46.83
2022-08-17T13:03:59.642Z,47.33
2022-08-17T13:06:31.600Z,46.41
2022-08-17T13:09:10.311Z,47.67
2022-08-17T13:11:48.777Z,45.81
2022-08-17T13:14:18.425Z,46.67
2022-08-17T13:16:52.705Z,47.21
2022-08-17T13:19:40.096Z,45.46
2022-08-17T13:22:12.983Z,46.46
2022-08-17T13:24:54.340Z,44.98
2022-08-17T13:27:25.318Z,44.83
2022-08-17T13:29:55.778Z,44.54
2022-08-17T13:32:36.347Z,44.03
2022-08-17T13:35:32.418Z,43.71
2022-08-17T13:38:10.078Z,44.30
2022-08-17T13:40:43.842Z,42.64
2022-08-17T13:43:12.107Z,43.21
2022-08-17T13:45:52.587Z,43.29
2022-08-17T13:48:24.933Z,44.12
2022-08-17T13:51:16.532Z,44.61
2022-08-17T13:53:55.451Z,44.07
2022-08-17T13:56:37.008Z,43.41
2022-08-17T13:59:12.254Z,43.79
2022-08-17T14:01:42.331Z,41.21
2022-08-17T14:04:12.616Z,38.43
2022-08-17T14:06:52.905Z,41.19
2022-08-17T14:09:25.176Z,39.16
2022-08-17T14:11:56.242Z,39.71
2022-08-17T14:14:24.088Z,38.46
2022-08-17T14:16:53.068Z,37.33
2022-08-17T14:19:22.121Z,37.13
2022-08-17T14:21:50.950Z,38.21
2022-08-17T14:24:23.638Z,38.24
2022-08-17T14:26:53.465Z,37.39
2022-08-17T14:29:24.152Z,37.26
2022-08-17T14:31:54.240Z,37.00
2022-08-17T14:34:23.074Z,38.82
2022-08-17T14:36:52.010Z,38.29
2022-08-17T14:39:20.194Z,40.30
2022-08-17T14:41:48.227Z,36.67
2022-08-17T14:44:16.261Z,36.74
2022-08-17T14:46:46.568Z,37.72
2022-08-17T14:49:15.634Z,38.01
2022-08-17T14:51:44.689Z,36.32
2022-08-17T14:54:25.590Z,37.00
2022-08-17T14:57:23.018Z,38.18
2022-08-17T14:59:53.199Z,38.89
2022-08-17T15:02:27.973Z,37.63
2022-08-17T15:05:00.606Z,37.01
2022-08-17T15:07:30.563Z,37.05
2022-08-17T15:10:00.407Z,38.96
2022-08-17T15:12:33.173Z,37.43
2022-08-17T15:15:04.517Z,38.56
2022-08-17T15:17:45.021Z,39.13
2022-08-17T15:20:15.757Z,38.18
2022-08-17T15:22:45.095Z,38.37
2022-08-17T15:25:14.944Z,36.71
2022-08-17T15:27:43.119Z,38.20
2022-08-17T15:30:12.187Z,36.17
2022-08-17T15:32:50.864Z,38.00
2022-08-17T15:35:26.870Z,37.72
2022-08-17T15:37:57.642Z,40.13
2022-08-17T15:40:26.438Z,39.20
2022-08-17T15:42:54.119Z,38.81
2022-08-17T15:45:27.426Z,38.13
2022-08-17T15:47:56.463Z,38.27
2022-08-17T15:50:24.595Z,38.26
2022-08-17T15:52:57.932Z,38.77
2022-08-17T15:55:27.431Z,39.39
2022-08-17T15:57:55.296Z,40.08
2022-08-17T16:00:24.275Z,40.63
2022-08-17T16:03:16.042Z,41.60
2022-08-17T16:05:41.601Z,41.69
2022-08-17T16:08:11.005Z,41.83
2022-08-17T16:10:39.480Z,41.98
2022-08-17T16:13:17.506Z,41.71
2022-08-17T16:15:53.102Z,40.78
2022-08-17T16:18:30.793Z,41.14
2022-08-17T16:21:22.762Z,41.39
2022-08-17T16:23:52.268Z,41.97
2022-08-17T16:26:20.767Z,41.44
2022-08-17T16:28:48.424Z,41.43
2022-08-17T16:31:17.075Z,41.84
2022-08-17T16:34:15.816Z,41.94
2022-08-17T16:36:34.428Z,42.95
2022-08-17T16:39:02.316Z,43.10
2022-08-17T16:41:45.857Z,43.69
2022-08-17T16:44:15.618Z,43.94
2022-08-17T16:46:45.744Z,43.79
2022-08-17T16:49:36.057Z,44.01
2022-08-17T16:52:05.226Z,44.12
2022-08-17T16:54:33.455Z,44.49
2022-08-17T16:57:03.918Z,44.57
2022-08-17T16:59:41.853Z,45.13
2022-08-17T17:02:15.225Z,45.72
2022-08-17T17:04:50.215Z,44.45
2022-08-17T17:07:42.372Z,44.97
2022-08-17T17:10:13.526Z,44.96
2022-08-17T17:13:02.090Z,45.13
2022-08-17T17:15:41.409Z,46.17
2022-08-17T17:18:13.964Z,46.82
2022-08-17T17:20:48.594Z,46.68
2022-08-17T17:23:34.906Z,46.55
2022-08-17T17:26:12.894Z,47.29
2022-08-17T17:28:56.859Z,46.92
2022-08-17T17:31:28.335Z,47.47
2022-08-17T17:33:58.198Z,47.17
2022-08-17T17:36:30.157Z,47.55
2022-08-17T17:39:05.285Z,48.16
2022-08-17T17:41:38.060Z,48.23
2022-08-17T17:44:09.307Z,48.10
2022-08-17T17:46:43.331Z,48.90
2022-08-17T17:49:14.030Z,49.17
2022-08-17T17:52:06.548Z,48.69
2022-08-17T17:54:53.957Z,48.81
2022-08-17T17:57:32.317Z,48.74
2022-08-17T18:00:08.304Z,49.46
2022-08-17T18:02:55.657Z,49.37
2022-08-17T18:05:35.886Z,49.31
2022-08-17T18:08:14.372Z,49.83
2022-08-17T18:10:50.868Z,49.94
2022-08-17T18:13:28.249Z,49.61
2022-08-17T18:16:00.668Z,49.75
2022-08-17T18:18:38.720Z,50.05
2022-08-17T18:21:19.257Z,50.50
2022-08-17T18:23:51.198Z,50.37
2022-08-17T18:26:37.515Z,50.67
2022-08-17T18:29:21.412Z,50.36
2022-08-17T18:31:52.451Z,50.98
2022-08-17T18:34:45.833Z,50.92
2022-08-17T18:37:16.020Z,50.89
2022-08-17T18:39:47.102Z,51.45
2022-08-17T18:42:27.568Z,51.70
2022-08-17T18:44:56.676Z,51.86
2022-08-17T18:47:27.155Z,52.04
2022-08-17T18:49:58.681Z,52.96
2022-08-17T18:52:29.023Z,53.30
2022-08-17T18:55:03.934Z,53.06
2022-08-17T18:57:35.234Z,53.23
2022-08-17T19:00:12.509Z,52.64
2022-08-17T19:02:52.601Z,52.84
2022-08-17T19:05:31.668Z,52.66
2022-08-17T19:08:20.125Z,52.83
2022-08-17T19:10:49.793Z,53.27
2022-08-17T19:13:24.457Z,53.25
2022-08-17T19:16:11.908Z,53.24
2022-08-17T19:18:47.751Z,53.38
2022-08-17T19:21:19.384Z,53.44
2022-08-17T19:23:54.187Z,53.87
2022-08-17T19:26:54.285Z,54.10
2022-08-17T19:29:19.622Z,54.01
2022-08-17T19:31:50.696Z,54.31
2022-08-17T19:34:30.323Z,54.80
2022-08-17T19:37:08.905Z,54.80
2022-08-17T19:39:44.465Z,54.14
2022-08-17T19:42:33.291Z,53.92
2022-08-17T19:45:09.396Z,53.96
2022-08-17T19:47:55.356Z,53.79
2022-08-17T19:50:41.576Z,53.65
2022-08-17T19:53:19.837Z,53.69
2022-08-17T19:55:54.796Z,53.62
2022-08-17T19:58:34.602Z,53.69
2022-08-17T20:01:08.051Z,53.76
2022-08-17T20:03:43.752Z,53.39
2022-08-17T20:06:13.994Z,53.62
2022-08-17T20:08:54.840Z,53.75
2022-08-17T20:11:28.916Z,53.75
2022-08-17T20:14:02.147Z,54.11
2022-08-17T20:16:33.226Z,54.36
2022-08-17T20:19:04.499Z,54.63
2022-08-17T20:21:37.830Z,54.81
2022-08-17T20:24:20.141Z,55.95
2022-08-17T20:26:58.090Z,59.50
2022-08-17T20:29:39.937Z,61.92
2022-08-17T20:32:32.320Z,63.42
2022-08-17T20:35:09.376Z,66.71
2022-08-17T20:37:43.123Z,66.73
2022-08-17T20:40:33.507Z,68.97
2022-08-17T20:43:39.868Z,71.79
2022-08-17T20:46:28.053Z,72.62
2022-08-17T20:49:01.394Z,74.57
2022-08-17T20:51:33.504Z,74.34
2022-08-17T20:54:07.932Z,74.98
2022-08-17T20:56:56.105Z,73.91
2022-08-17T20:59:56.408Z,73.89
2022-08-17T21:02:28.932Z,73.77
2022-08-17T21:05:08.250Z,73.49
2022-08-17T21:07:54.502Z,74.03
2022-08-17T21:10:38.333Z,74.73
2022-08-17T21:13:32.510Z,74.88
2022-08-17T21:16:08.199Z,77.18
2022-08-17T21:18:45.428Z,79.80
2022-08-17T21:21:24.912Z,82.41
2022-08-17T21:24:11.935Z,83.05
2022-08-17T21:26:55.334Z,84.13
2022-08-17T21:29:31.020Z,85.89
2022-08-17T21:32:28.124Z,86.52
2022-08-17T21:35:39.079Z,86.50
2022-08-17T21:38:15.923Z,88.22
2022-08-17T21:40:49.975Z,88.11
2022-08-17T21:43:24.414Z,89.32
2022-08-17T21:45:59.459Z,91.77
2022-08-17T21:48:28.531Z,91.68
2022-08-17T21:51:04.295Z,91.50
2022-08-17T21:53:39.042Z,92.78
2022-08-17T21:56:08.995Z,93.62
2022-08-17T21:58:40.908Z,93.31
2022-08-17T22:01:27.588Z,94.47
2022-08-17T22:03:58.994Z,93.90
2022-08-17T22:06:29.763Z,95.32
2022-08-17T22:09:12.284Z,95.17
2022-08-17T22:11:52.858Z,95.62
2022-08-17T22:14:22.371Z,94.88
2022-08-17T22:17:07.837Z,95.16
2022-08-17T22:19:36.838Z,94.45
2022-08-17T22:22:06.483Z,95.08
2022-08-17T22:24:37.131Z,95.17
2022-08-17T22:27:08.229Z,96.63
2022-08-17T22:29:57.837Z,97.26
2022-08-17T22:32:48.226Z,94.75
2022-08-17T22:35:34.037Z,93.07
2022-08-17T22:38:28.717Z,92.13
2022-08-17T22:41:16.358Z,92.23
2022-08-17T22:43:44.910Z,92.46
2022-08-17T22:46:15.268Z,93.22
2022-08-17T22:48:50.127Z,93.75
2022-08-17T22:51:24.863Z,93.61
2022-08-17T22:54:13.145Z,92.45
2022-08-17T22:57:18.811Z,92.46
2022-08-17T22:59:49.434Z,94.22
2022-08-17T23:02:24.404Z,94.26
2022-08-17T23:04:57.707Z,93.24
2022-08-17T23:07:25.500Z,93.40
2022-08-17T23:09:54.801Z,93.64
2022-08-17T23:12:27.504Z,93.84
2022-08-17T23:15:02.011Z,92.46
2022-08-17T23:17:37.219Z,92.76
2022-08-17T23:20:08.203Z,93.79
2022-08-17T23:22:37.976Z,94.04
2022-08-17T23:25:27.351Z,93.30
2022-08-17T23:27:57.288Z,92.31
2022-08-17T23:30:28.708Z,91.85
2022-08-17T23:32:56.812Z,91.34
2022-08-17T23:35:39.824Z,91.37
2022-08-17T23:38:12.400Z,91.97
2022-08-17T23:40:41.422Z,92.16
2022-08-17T23:43:23.720Z,92.53
2022-08-17T23:45:54.320Z,91.53
2022-08-17T23:48:35.479Z,91.45
2022-08-17T23:51:09.616Z,92.52
2022-08-17T23:53:40.367Z,92.07
2022-08-17T23:56:11.489Z,91.48
2022-08-17T23:58:42.936Z,91.94
